Time;durP1;ratioP1;P1;durP2;ratioP2;P2;SDS_P1;SDS_P2;PMS_P1;PMS_P2;Temp;Humidity;BMP_temperature;BMP_pressure;BME280_temperature;BME280_humidity;BME280_pressure;Samples;Min_cycle;Max_cycle;Signal;HPM_P1;HPM_P2
2022/05/02 00:02:12;;;;;;;10.43;9.18;;;5.50;99.90;;;;;;5041637;28;20060;-56
2022/05/02 00:04:38;;;;;;;11.20;9.75;;;5.60;99.90;;;;;;5040746;28;20411;-49
2022/05/02 00:07:03;;;;;;;11.82;10.63;;;5.60;99.90;;;;;;5041393;28;20419;-42
2022/05/02 00:09:29;;;;;;;11.43;10.23;;;5.60;99.90;;;;;;5058598;28;20524;-54
2022/05/02 00:11:55;;;;;;;13.95;11.23;;;5.60;99.90;;;;;;5059940;28;20060;-46
2022/05/02 00:14:21;;;;;;;12.30;11.00;;;5.60;99.90;;;;;;5048081;28;20076;-54
2022/05/02 00:16:46;;;;;;;12.25;10.93;;;5.60;99.90;;;;;;5060742;28;20139;-54
2022/05/02 00:19:12;;;;;;;13.55;10.07;;;5.60;99.90;;;;;;5058132;28;20528;-54
2022/05/02 00:21:38;;;;;;;11.98;10.73;;;5.60;99.90;;;;;;5062708;28;20522;-49
2022/05/02 00:24:04;;;;;;;12.23;10.90;;;5.50;99.90;;;;;;5043046;28;20055;-45
2022/05/02 00:26:29;;;;;;;11.93;10.75;;;5.50;99.90;;;;;;5045216;28;20153;-51
2022/05/02 00:29:01;;;;;;;12.90;10.70;;;5.50;99.90;;;;;;5062719;28;20075;-47
2022/05/02 00:31:27;;;;;;;11.70;10.50;;;5.50;99.90;;;;;;5037751;28;20418;-52
2022/05/02 00:33:52;;;;;;;13.45;10.52;;;5.50;99.90;;;;;;5062359;28;20044;-50
2022/05/02 00:36:18;;;;;;;12.73;10.80;;;5.50;99.90;;;;;;5062442;28;20048;-52
2022/05/02 00:38:44;;;;;;;11.85;10.63;;;5.40;99.90;;;;;;5063599;28;20048;-48
2022/05/02 00:41:11;;;;;;;11.48;10.35;;;5.40;99.90;;;;;;5061450;28;20169;-50
2022/05/02 00:43:39;;;;;;;12.02;10.63;;;5.40;99.90;;;;;;5061985;28;20511;-50
2022/05/02 00:46:21;;;;;;;14.43;10.80;;;5.40;99.90;;;;;;5062888;28;20052;-54
2022/05/02 00:48:47;;;;;;;12.85;10.88;;;5.40;99.90;;;;;;5057963;28;20129;-54
2022/05/02 00:51:16;;;;;;;11.57;10.25;;;5.30;99.90;;;;;;5062109;28;20052;-52
2022/05/02 00:53:45;;;;;;;14.18;11.45;;;5.30;99.90;;;;;;5041283;28;20088;-53
2022/05/02 00:56:11;;;;;;;11.52;10.25;;;5.30;99.90;;;;;;5063100;28;20079;-49
2022/05/02 00:58:42;;;;;;;12.20;10.93;;;5.30;99.90;;;;;;5063208;28;20238;-48
2022/05/02 01:01:08;;;;;;;13.32;11.27;;;5.20;99.90;;;;;;5058584;28;20152;-55
2022/05/02 01:03:34;;;;;;;13.02;11.07;;;5.20;99.90;;;;;;5061497;28;20040;-51
2022/05/02 01:08:45;;;;;;;12.43;10.15;;;5.20;99.90;;;;;;5056086;28;20063;-49
2022/05/02 01:11:11;;;;;;;11.52;9.95;;;5.10;99.90;;;;;;5059721;28;20040;-50
2022/05/02 01:13:47;;;;;;;9.98;7.70;;;5.10;99.90;;;;;;5048788;28;20055;-53
2022/05/02 01:16:22;;;;;;;10.02;8.68;;;5.00;99.90;;;;;;5058506;28;20048;-52
2022/05/02 01:18:50;;;;;;;10.93;8.57;;;5.00;99.90;;;;;;5063043;28;20040;-55
2022/05/02 01:21:25;;;;;;;9.68;8.52;;;5.00;99.90;;;;;;5061799;28;20056;-54
2022/05/02 01:24:00;;;;;;;9.98;8.98;;;4.90;99.90;;;;;;5062083;28;20052;-53
2022/05/02 01:26:26;;;;;;;9.65;8.23;;;4.90;99.90;;;;;;5042564;28;20068;-51
2022/05/02 01:28:54;;;;;;;9.70;8.23;;;4.80;99.90;;;;;;5057099;28;20044;-43
2022/05/02 01:31:21;;;;;;;9.75;8.75;;;4.80;99.90;;;;;;5055384;28;20118;-55
2022/05/02 01:33:48;;;;;;;9.65;8.65;;;4.80;99.90;;;;;;5061776;28;20048;-52
2022/05/02 01:36:15;;;;;;;11.10;8.90;;;4.70;99.90;;;;;;5062944;28;20047;-53
2022/05/02 01:38:42;;;;;;;10.30;8.57;;;4.70;99.90;;;;;;5062514;28;20055;-51
2022/05/02 01:41:08;;;;;;;9.23;8.07;;;4.70;99.90;;;;;;5061757;28;20181;-54
2022/05/02 01:43:35;;;;;;;9.73;8.65;;;4.70;99.90;;;;;;5059507;28;20386;-53
2022/05/02 01:46:01;;;;;;;11.85;10.63;;;4.70;99.90;;;;;;5062667;28;20044;-45
2022/05/02 01:48:27;;;;;;;12.05;10.85;;;4.70;99.90;;;;;;5062432;28;20048;-52
2022/05/02 01:50:54;;;;;;;13.00;11.50;;;4.70;99.90;;;;;;5061044;28;20052;-50
2022/05/02 01:53:20;;;;;;;13.10;10.73;;;4.70;99.90;;;;;;5051309;28;20639;-50
2022/05/02 01:55:46;;;;;;;13.00;11.63;;;4.70;99.90;;;;;;5038643;28;20056;-51
2022/05/02 01:58:12;;;;;;;14.27;11.23;;;4.70;99.90;;;;;;5053122;28;20473;-51
2022/05/02 02:00:38;;;;;;;14.98;11.13;;;4.80;99.90;;;;;;5055563;28;20044;-51
2022/05/02 02:03:04;;;;;;;10.18;8.88;;;4.80;99.90;;;;;;5061029;28;20056;-54
2022/05/02 02:08:19;;;;;;;10.98;9.88;;;4.70;99.90;;;;;;5061882;28;20060;-49
2022/05/02 02:10:46;;;;;;;14.68;10.93;;;4.70;99.90;;;;;;5050050;28;20103;-51
2022/05/02 02:13:13;;;;;;;11.85;9.88;;;4.70;99.90;;;;;;5055155;28;20632;-52
2022/05/02 02:15:38;;;;;;;13.88;11.00;;;4.60;99.90;;;;;;5033760;28;20414;-52
2022/05/02 02:18:04;;;;;;;14.30;12.05;;;4.60;99.90;;;;;;5040675;28;20060;-50
2022/05/02 02:20:31;;;;;;;13.20;10.27;;;4.50;99.90;;;;;;5054823;28;20076;-48
2022/05/02 02:22:57;;;;;;;11.80;9.68;;;4.50;99.90;;;;;;5061380;28;20051;-53
2022/05/02 02:25:23;;;;;;;9.95;8.82;;;4.50;99.90;;;;;;5061288;28;20036;-47
2022/05/02 02:27:48;;;;;;;10.70;9.57;;;4.40;99.90;;;;;;5061098;28;20099;-52
2022/05/02 02:30:14;;;;;;;12.90;10.80;;;4.30;99.90;;;;;;5057370;28;20657;-50
2022/05/02 02:32:49;;;;;;;12.73;10.40;;;4.30;99.90;;;;;;5061642;28;20052;-52
2022/05/02 02:35:15;;;;;;;12.35;11.10;;;4.30;99.90;;;;;;5055971;28;20103;-50
2022/05/02 02:37:41;;;;;;;15.35;10.88;;;4.20;99.90;;;;;;5056367;28;20127;-53
2022/05/02 02:40:09;;;;;;;13.73;11.15;;;4.20;99.90;;;;;;5060329;28;20044;-53
2022/05/02 02:42:36;;;;;;;15.75;11.25;;;4.10;99.90;;;;;;5060420;28;20048;-53
2022/05/02 02:45:02;;;;;;;13.73;12.30;;;4.10;99.90;;;;;;5061200;28;20101;-48
2022/05/02 02:47:29;;;;;;;15.65;12.80;;;4.00;99.90;;;;;;5054554;28;20068;-49
2022/05/02 02:49:54;;;;;;;14.00;10.88;;;4.00;99.90;;;;;;5060607;28;20056;-48
2022/05/02 02:52:20;;;;;;;14.98;13.38;;;4.00;99.90;;;;;;5059957;28;20381;-53
2022/05/02 02:54:46;;;;;;;14.50;12.32;;;4.00;99.90;;;;;;5061258;28;20346;-50
2022/05/02 02:57:12;;;;;;;17.23;13.15;;;4.00;99.90;;;;;;5059892;28;20036;-52
2022/05/02 02:59:38;;;;;;;17.30;12.40;;;4.00;99.90;;;;;;5059938;28;20051;-54
2022/05/02 03:02:05;;;;;;;17.30;14.63;;;4.00;99.90;;;;;;5043142;28;20088;-49
2022/05/02 03:07:16;;;;;;;15.43;13.00;;;4.00;99.90;;;;;;5058515;28;20595;-49
2022/05/02 03:09:45;;;;;;;18.63;14.30;;;4.00;99.90;;;;;;5053571;28;20160;-53
2022/05/02 03:12:11;;;;;;;16.98;13.38;;;4.00;99.90;;;;;;5060575;28;20501;-54
2022/05/02 03:14:37;;;;;;;10.95;9.82;;;4.00;99.90;;;;;;5055680;28;20171;-52
2022/05/02 03:17:03;;;;;;;7.82;7.13;;;4.00;99.90;;;;;;5060153;28;20044;-52
2022/05/02 03:19:28;;;;;;;8.15;6.68;;;3.90;99.90;;;;;;5054713;28;20091;-55
2022/05/02 03:21:54;;;;;;;8.00;7.20;;;3.90;99.90;;;;;;5055354;28;20059;-47
2022/05/02 03:24:20;;;;;;;9.10;8.20;;;3.90;99.90;;;;;;5056295;28;20694;-42
2022/05/02 03:26:45;;;;;;;17.08;12.00;;;3.80;99.90;;;;;;5056607;28;20058;-50
2022/05/02 03:29:11;;;;;;;13.52;12.10;;;3.80;99.90;;;;;;5058724;28;20048;-53
2022/05/02 03:31:37;;;;;;;16.17;12.68;;;3.80;99.90;;;;;;5060225;28;20510;-48
2022/05/02 03:34:02;;;;;;;13.13;11.57;;;3.80;99.90;;;;;;5061636;28;20056;-54
2022/05/02 03:36:28;;;;;;;13.23;11.82;;;3.80;99.90;;;;;;5060437;28;20048;-53
2022/05/02 03:38:54;;;;;;;16.05;12.55;;;3.80;99.90;;;;;;5057969;28;20101;-51
2022/05/02 03:41:24;;;;;;;14.82;12.43;;;3.80;99.90;;;;;;5057080;28;20914;-54
2022/05/02 03:43:50;;;;;;;14.52;12.63;;;3.80;99.90;;;;;;5057990;28;20212;-50
2022/05/02 03:46:16;;;;;;;16.35;12.52;;;3.80;99.90;;;;;;5042155;28;20794;-52
2022/05/02 03:48:44;;;;;;;16.52;13.02;;;3.80;99.90;;;;;;5055199;28;20110;-44
2022/05/02 03:51:15;;;;;;;16.92;13.85;;;3.80;99.90;;;;;;5058024;28;20052;-53
2022/05/02 03:53:41;;;;;;;14.68;13.05;;;3.80;99.90;;;;;;5048910;28;20053;-51
2022/05/02 03:56:06;;;;;;;14.88;12.32;;;3.80;99.90;;;;;;5062530;28;20055;-54
2022/05/02 03:58:32;;;;;;;16.20;12.45;;;3.80;99.90;;;;;;5060775;28;20126;-51
2022/05/02 04:00:58;;;;;;;16.88;12.63;;;3.80;99.90;;;;;;5056942;28;20049;-52
2022/05/02 04:03:24;;;;;;;15.27;12.98;;;3.80;99.90;;;;;;5069807;28;20402;-51
2022/05/02 04:05:50;;;;;;;15.07;13.45;;;3.80;99.90;;;;;;5063857;28;20086;-51
2022/05/02 04:08:15;;;;;;;16.48;13.82;;;3.80;99.90;;;;;;5060108;28;20079;-55
2022/05/02 04:10:41;;;;;;;19.25;14.88;;;3.80;99.90;;;;;;5062270;28;20060;-50
2022/05/02 04:13:08;;;;;;;17.25;15.43;;;3.90;99.90;;;;;;5059159;28;20487;-50
2022/05/02 04:15:34;;;;;;;19.67;15.95;;;3.90;99.90;;;;;;5042463;28;20052;-54
2022/05/02 04:18:00;;;;;;;20.70;15.07;;;3.90;99.90;;;;;;5063714;28;20037;-53
2022/05/02 04:20:26;;;;;;;18.05;15.38;;;3.90;99.90;;;;;;5039257;28;20604;-49
2022/05/02 04:22:51;;;;;;;21.10;16.85;;;3.90;99.90;;;;;;5068956;28;20074;-51
2022/05/02 04:25:17;;;;;;;23.98;16.77;;;4.00;99.90;;;;;;5063553;28;20084;-51
2022/05/02 04:27:43;;;;;;;19.17;16.10;;;4.00;99.90;;;;;;5058881;28;20052;-50
2022/05/02 04:30:10;;;;;;;19.30;15.90;;;4.00;99.90;;;;;;5037681;28;21483;-48
2022/05/02 04:32:37;;;;;;;17.92;14.77;;;4.10;99.90;;;;;;5059545;28;20060;-50
2022/05/02 04:35:04;;;;;;;18.20;15.38;;;4.10;99.90;;;;;;5053173;28;20110;-50
2022/05/02 04:37:30;;;;;;;19.40;16.85;;;4.20;99.90;;;;;;5058155;28;20044;-54
2022/05/02 04:39:56;;;;;;;21.42;15.23;;;4.20;99.90;;;;;;5055861;28;20048;-53
2022/05/02 04:42:22;;;;;;;17.85;14.90;;;4.30;99.90;;;;;;5062927;28;20051;-49
2022/05/02 04:44:48;;;;;;;20.40;16.23;;;4.30;99.90;;;;;;5058402;28;20045;-53
2022/05/02 04:47:15;;;;;;;19.73;16.50;;;4.30;99.90;;;;;;5041376;28;20056;-47
2022/05/02 04:49:40;;;;;;;18.60;16.60;;;4.40;99.90;;;;;;5057420;28;20052;-50
2022/05/02 04:52:06;;;;;;;26.52;16.77;;;4.60;99.90;;;;;;5058815;28;20049;-49
2022/05/02 04:54:32;;;;;;;22.00;16.95;;;4.90;99.90;;;;;;5055391;28;20057;-53
2022/05/02 04:56:58;;;;;;;19.13;15.75;;;5.60;99.90;;;;;;5070037;28;20074;-49
2022/05/02 04:59:24;;;;;;;18.15;14.48;;;6.60;99.90;;;;;;5044906;28;20114;-54
2022/05/02 05:01:51;;;;;;;18.20;14.95;;;7.70;99.90;;;;;;5064674;28;20072;-53
2022/05/02 05:04:17;;;;;;;14.77;13.18;;;8.60;99.90;;;;;;5066461;28;21084;-50
2022/05/02 05:06:42;;;;;;;15.48;13.88;;;9.30;99.90;;;;;;5063003;28;20391;-52
2022/05/02 05:09:09;;;;;;;13.93;12.57;;;10.10;99.90;;;;;;5062229;28;20490;-45
2022/05/02 05:11:59;;;;;;;14.23;12.77;;;10.80;99.90;;;;;;5050512;28;20126;-51
2022/05/02 05:18:30;;;;;;;13.40;11.93;;;12.00;99.90;;;;;;5058444;28;20056;-55
2022/05/02 05:20:59;;;;;;;14.48;11.70;;;12.40;99.90;;;;;;5039984;28;20153;-48
2022/05/02 05:23:50;;;;;;;13.27;11.55;;;12.70;99.90;;;;;;5061613;28;20060;-54
2022/05/02 05:26:35;;;;;;;13.40;11.23;;;13.30;99.90;;;;;;5057214;28;20110;-54
2022/05/02 05:29:46;;;;;;;12.43;11.20;;;14.00;99.90;;;;;;5070976;28;20051;-48
2022/05/02 05:32:15;;;;;;;12.57;11.40;;;14.80;99.90;;;;;;4975889;28;20066;-55
2022/05/02 05:34:57;;;;;;;13.25;11.68;;;15.40;99.90;;;;;;4979967;28;20104;-50
2022/05/02 05:37:46;;;;;;;13.80;12.43;;;16.20;99.60;;;;;;4978278;28;20145;-50
2022/05/02 05:40:20;;;;;;;12.52;11.10;;;16.50;97.60;;;;;;4969788;28;20043;-57
2022/05/02 05:43:24;;;;;;;12.82;11.30;;;16.70;96.90;;;;;;4979872;28;20066;-55
2022/05/02 05:46:20;;;;;;;11.43;10.35;;;16.90;96.30;;;;;;4880935;29;20072;-51
2022/05/02 05:48:52;;;;;;;12.02;10.82;;;17.00;95.60;;;;;;4902627;29;20624;-55
2022/05/02 05:51:36;;;;;;;13.77;11.02;;;17.40;96.00;;;;;;4902842;29;20063;-55
2022/05/02 05:54:49;;;;;;;11.80;10.70;;;18.20;95.10;;;;;;4888153;29;20116;-54
2022/05/02 05:57:32;;;;;;;11.77;10.68;;;19.00;94.30;;;;;;4826152;29;20149;-53
2022/05/02 06:00:04;;;;;;;11.68;10.48;;;19.80;92.80;;;;;;4820086;29;20053;-57
2022/05/02 06:02:49;;;;;;;13.50;10.88;;;20.50;92.70;;;;;;4834672;29;20114;-54
2022/05/02 06:05:16;;;;;;;11.82;9.57;;;20.90;90.20;;;;;;4806238;29;20452;-52
2022/05/02 06:07:44;;;;;;;10.93;9.75;;;21.80;90.70;;;;;;4835981;29;20072;-55
2022/05/02 06:10:10;;;;;;;12.52;11.18;;;22.20;90.10;;;;;;4865815;29;20120;-54
2022/05/02 06:12:38;;;;;;;13.05;10.88;;;23.10;88.80;;;;;;4867367;29;20559;-54
2022/05/02 06:20:42;;;;;;;10.23;8.27;;;23.80;79.30;;;;;;4870159;29;20057;-52
2022/05/02 06:23:09;;;;;;;10.52;8.48;;;24.20;79.40;;;;;;4895492;29;20123;-55
2022/05/02 06:25:37;;;;;;;9.10;8.20;;;24.70;78.50;;;;;;4941112;28;20051;-57
2022/05/02 06:28:05;;;;;;;10.00;9.10;;;24.80;77.00;;;;;;4944865;28;20157;-54
2022/05/02 06:30:33;;;;;;;11.55;7.65;;;25.00;74.50;;;;;;4922747;28;20231;-52
2022/05/02 06:33:05;;;;;;;7.20;6.50;;;25.10;75.00;;;;;;4971757;28;20068;-55
2022/05/02 06:36:10;;;;;;;8.52;7.47;;;25.20;74.30;;;;;;5022051;28;20041;-54
2022/05/02 06:38:51;;;;;;;8.25;7.45;;;25.80;71.20;;;;;;5020431;28;20428;-55
2022/05/02 06:41:20;;;;;;;8.50;7.60;;;25.50;72.80;;;;;;5025130;28;20459;-57
2022/05/02 06:44:21;;;;;;;8.38;7.40;;;25.40;70.80;;;;;;5021174;28;20100;-54
2022/05/02 06:47:16;;;;;;;7.93;7.22;;;24.30;70.80;;;;;;5012879;28;20064;-55
2022/05/02 06:49:44;;;;;;;9.65;8.27;;;23.60;71.70;;;;;;5018559;28;20167;-54
2022/05/02 06:52:11;;;;;;;8.23;7.35;;;23.80;72.40;;;;;;5006653;28;20060;-52
2022/05/02 06:54:40;;;;;;;10.23;7.70;;;23.90;72.70;;;;;;5042433;28;20056;-54
2022/05/02 06:57:09;;;;;;;8.05;7.30;;;24.20;72.00;;;;;;5051607;28;20570;-53
2022/05/02 06:59:56;;;;;;;8.07;7.28;;;24.10;71.60;;;;;;5059730;28;20076;-51
2022/05/02 07:02:59;;;;;;;7.53;6.93;;;24.00;71.20;;;;;;5058378;28;20094;-51
2022/05/02 07:05:43;;;;;;;7.85;6.93;;;22.60;71.30;;;;;;5030768;28;20444;-51
2022/05/02 07:08:08;;;;;;;7.72;6.97;;;21.40;73.30;;;;;;5039781;28;20060;-52
2022/05/02 07:10:35;;;;;;;8.30;7.55;;;20.60;75.50;;;;;;5054770;28;20054;-50
2022/05/02 07:13:38;;;;;;;8.52;7.82;;;20.30;76.60;;;;;;5051739;28;20116;-46
2022/05/02 07:16:17;;;;;;;;;;;20.30;77.50;;;;;;5056303;28;20511;-50
2022/05/02 07:18:59;;;;;;;8.75;7.70;;;19.70;78.80;;;;;;5039545;28;19931;-47
2022/05/02 07:21:57;;;;;;;9.23;8.38;;;19.30;80.00;;;;;;5056483;28;20048;-49
2022/05/02 07:24:26;;;;;;;10.00;8.00;;;19.20;81.30;;;;;;5054817;28;21027;-52
2022/05/02 07:27:34;;;;;;;8.73;7.93;;;19.10;81.60;;;;;;5057719;28;20044;-51
2022/05/02 07:30:01;;;;;;;9.60;8.57;;;19.00;82.10;;;;;;4971020;28;20132;-51
2022/05/02 07:32:29;;;;;;;8.93;7.90;;;18.60;82.40;;;;;;4977913;28;20058;-52
2022/05/02 07:34:56;;;;;;;9.38;8.43;;;18.40;81.60;;;;;;4969662;28;20146;-52
2022/05/02 07:37:22;;;;;;;12.70;9.23;;;17.90;83.60;;;;;;4964018;28;20083;-49
2022/05/02 07:39:50;;;;;;;9.55;8.52;;;17.90;84.90;;;;;;4964519;28;20073;-51
2022/05/02 07:42:16;;;;;;;10.82;9.82;;;17.90;85.20;;;;;;4972705;28;20100;-52
2022/05/02 07:44:44;;;;;;;11.63;9.75;;;17.80;84.70;;;;;;4979259;28;20639;-51
2022/05/02 07:47:13;;;;;;;10.82;9.82;;;17.70;85.30;;;;;;4977671;28;20066;-55
2022/05/02 07:49:43;;;;;;;10.40;9.35;;;17.70;85.80;;;;;;4973020;28;20051;-50
2022/05/02 07:52:11;;;;;;;10.32;9.32;;;17.70;85.90;;;;;;4975559;28;20086;-54
2022/05/02 07:54:42;;;;;;;12.77;8.75;;;17.70;85.60;;;;;;4960475;28;20201;-53
2022/05/02 07:57:09;;;;;;;11.70;10.13;;;17.70;85.50;;;;;;4962785;28;20588;-55
2022/05/02 07:59:42;;;;;;;10.55;9.38;;;17.60;85.20;;;;;;4975340;28;20090;-50
2022/05/02 08:02:08;;;;;;;;;;;17.70;84.70;;;;;;4970927;28;20054;-50
2022/05/02 08:04:40;;;;;;;10.25;9.02;;;17.50;85.40;;;;;;4971936;28;20365;-55
2022/05/02 08:07:15;;;;;;;11.30;9.43;;;17.40;86.60;;;;;;5022360;28;20159;-53
2022/05/02 08:10:05;;;;;;;11.25;10.20;;;17.30;86.20;;;;;;5035264;28;20048;-52
2022/05/02 08:12:42;;;;;;;13.77;11.25;;;17.20;88.20;;;;;;5049086;28;20106;-49
2022/05/02 08:15:46;;;;;;;12.65;10.27;;;17.20;87.40;;;;;;5059299;28;20048;-51
2022/05/02 08:18:50;;;;;;;12.77;10.30;;;17.00;88.10;;;;;;5056638;28;20052;-53
2022/05/02 08:21:22;;;;;;;11.60;10.40;;;16.90;87.20;;;;;;5058346;28;20053;-55
2022/05/02 08:27:16;;;;;;;11.90;10.80;;;17.00;87.90;;;;;;5056678;28;20573;-50
2022/05/02 08:29:52;;;;;;;12.50;11.23;;;17.00;87.00;;;;;;5051569;28;20408;-53
2022/05/02 08:32:27;;;;;;;12.77;11.40;;;16.90;88.40;;;;;;5059361;28;20059;-57
2022/05/02 08:35:06;;;;;;;12.18;10.88;;;17.00;89.80;;;;;;5058724;28;20061;-52
2022/05/02 08:37:42;;;;;;;14.88;11.35;;;16.70;87.50;;;;;;5059340;28;20055;-54
2022/05/02 08:40:17;;;;;;;11.32;10.25;;;16.70;86.80;;;;;;5059088;28;20155;-54
2022/05/02 08:42:44;;;;;;;10.50;9.48;;;16.80;88.40;;;;;;5056408;28;20156;-54
2022/05/02 08:45:33;;;;;;;14.07;11.40;;;17.00;87.30;;;;;;5058252;28;20071;-56
2022/05/02 08:48:15;;;;;;;12.52;10.77;;;16.90;88.00;;;;;;5064090;28;20052;-54
2022/05/02 08:51:12;;;;;;;11.38;10.18;;;17.00;90.00;;;;;;5062431;28;20200;-53
2022/05/02 08:54:01;;;;;;;10.55;9.55;;;17.10;88.50;;;;;;5055932;28;20048;-56
2022/05/02 08:57:08;;;;;;;11.30;10.13;;;17.00;88.00;;;;;;5056533;28;20135;-50
2022/05/02 08:59:52;;;;;;;10.82;9.73;;;17.00;87.70;;;;;;4960042;28;20051;-52
2022/05/02 09:02:48;;;;;;;11.35;9.77;;;17.10;88.00;;;;;;4957058;28;20050;-54
2022/05/02 09:05:38;;;;;;;11.05;9.85;;;17.20;88.70;;;;;;4952692;28;20480;-55
2022/05/02 09:08:23;;;;;;;10.23;9.07;;;17.20;88.20;;;;;;4950802;28;20098;-53
2022/05/02 09:11:07;;;;;;;10.98;9.50;;;17.10;88.20;;;;;;4957646;28;20433;-54
2022/05/02 09:13:56;;;;;;;10.75;9.68;;;17.30;89.40;;;;;;4956547;28;20118;-51
2022/05/02 09:16:57;;;;;;;10.13;9.13;;;17.20;87.60;;;;;;4959679;28;20058;-50
2022/05/02 09:19:43;;;;;;;10.55;9.48;;;17.20;86.40;;;;;;4956511;28;20526;-50
2022/05/02 09:22:46;;;;;;;11.70;10.15;;;17.10;86.20;;;;;;4958147;28;20485;-50
2022/05/02 09:25:29;;;;;;;10.60;9.60;;;17.00;85.30;;;;;;4951873;28;20187;-45
2022/05/02 09:28:28;;;;;;;19.00;10.90;;;17.00;86.70;;;;;;4954018;28;20441;-53
2022/05/02 09:31:00;;;;;;;11.32;9.45;;;17.00;86.00;;;;;;4948046;28;20187;-53
2022/05/02 09:33:31;;;;;;;10.95;9.95;;;17.30;87.90;;;;;;4956868;28;20124;-56
2022/05/02 09:36:04;;;;;;;13.15;9.57;;;17.20;85.90;;;;;;4978309;28;20058;-54
2022/05/02 09:38:43;;;;;;;11.20;9.57;;;17.60;87.80;;;;;;4975784;28;20054;-53
2022/05/02 09:41:30;;;;;;;11.90;9.05;;;17.20;84.00;;;;;;4974916;28;20540;-57
2022/05/02 09:50:23;;;;;;;10.65;9.57;;;17.90;82.40;;;;;;4920592;29;20476;-50
2022/05/02 09:53:12;;;;;;;10.75;9.43;;;18.00;82.70;;;;;;4918524;29;20062;-53
2022/05/02 09:58:43;;;;;;;10.38;9.43;;;18.30;82.80;;;;;;4920889;29;20077;-56
2022/05/02 10:01:21;;;;;;;10.38;9.13;;;18.50;83.30;;;;;;4921518;29;20143;-54
2022/05/02 10:04:01;;;;;;;10.00;8.77;;;18.30;81.80;;;;;;4904942;29;20060;-54
2022/05/02 10:06:41;;;;;;;10.52;8.65;;;18.50;81.90;;;;;;4923333;29;20582;-56
2022/05/02 10:09:37;;;;;;;8.82;7.75;;;18.60;82.40;;;;;;4998306;28;20125;-53
2022/05/02 10:12:05;;;;;;;9.15;8.30;;;18.60;80.40;;;;;;4998350;28;20105;-53
2022/05/02 10:14:50;;;;;;;9.98;8.90;;;18.60;80.80;;;;;;4996782;28;20058;-60
2022/05/02 10:17:37;;;;;;;9.38;8.35;;;18.60;79.30;;;;;;4997097;28;20057;-52
2022/05/02 10:20:19;;;;;;;9.85;8.85;;;18.40;79.70;;;;;;5002112;28;20057;-52
2022/05/02 10:22:58;;;;;;;10.00;8.63;;;18.30;80.40;;;;;;5052684;28;20044;-53
2022/05/02 10:26:08;;;;;;;9.52;8.63;;;18.40;80.10;;;;;;5039185;28;20072;-55
2022/05/02 10:29:04;;;;;;;10.50;8.43;;;18.30;79.00;;;;;;5056363;28;20067;-52
2022/05/02 10:31:35;;;;;;;8.95;8.15;;;18.50;79.70;;;;;;5056082;28;20081;-53
2022/05/02 10:34:02;;;;;;;9.88;8.40;;;18.50;79.90;;;;;;5060611;28;20052;-51
2022/05/02 10:36:35;;;;;;;10.90;8.73;;;18.40;79.70;;;;;;5058880;28;20542;-54
2022/05/02 10:39:06;;;;;;;;;;;18.30;79.90;;;;;;5043445;28;20072;-53
2022/05/02 10:41:46;;;;;;;10.75;7.78;;;18.40;76.80;;;;;;5059222;28;19960;-51
2022/05/02 10:44:15;;;;;;;9.77;7.90;;;18.30;78.40;;;;;;5054263;28;20044;-53
2022/05/02 10:46:44;;;;;;;13.65;8.57;;;18.20;77.40;;;;;;5043365;28;20053;-56
2022/05/02 10:49:46;;;;;;;9.38;8.48;;;18.20;78.00;;;;;;5054390;28;20101;-51
2022/05/02 10:52:32;;;;;;;8.70;7.88;;;18.00;79.10;;;;;;5052449;28;20159;-53
2022/05/02 10:55:07;;;;;;;11.15;8.27;;;18.10;79.80;;;;;;5049993;28;20067;-55
2022/05/02 10:57:41;;;;;;;9.48;7.97;;;18.20;81.30;;;;;;5060226;28;20123;-51
2022/05/02 11:00:11;;;;;;;9.18;8.15;;;18.20;77.80;;;;;;5060286;28;20056;-53
2022/05/02 11:03:23;;;;;;;10.02;8.38;;;18.10;77.30;;;;;;5059696;28;20049;-51
2022/05/02 11:05:58;;;;;;;10.77;8.18;;;18.10;81.70;;;;;;5058769;28;20060;-56
2022/05/02 11:08:44;;;;;;;9.27;8.20;;;18.10;81.90;;;;;;5060453;28;20044;-57
2022/05/02 11:11:22;;;;;;;9.45;8.55;;;18.30;79.30;;;;;;5050268;28;20044;-54
2022/05/02 11:13:51;;;;;;;9.68;7.35;;;18.30;80.60;;;;;;5056211;28;20054;-57
2022/05/02 11:16:29;;;;;;;9.25;8.10;;;18.30;79.90;;;;;;5051612;28;20055;-54
2022/05/02 11:22:23;;;;;;;9.52;7.88;;;18.20;79.60;;;;;;5051210;28;20186;-53
2022/05/02 11:25:08;;;;;;;9.18;8.13;;;18.30;79.20;;;;;;5061167;28;20067;-55
2022/05/02 11:28:06;;;;;;;9.23;8.32;;;18.10;77.20;;;;;;5051998;28;20052;-53
2022/05/02 11:30:45;;;;;;;8.75;7.93;;;18.20;80.40;;;;;;4959907;28;20142;-53
2022/05/02 11:33:16;;;;;;;8.13;7.38;;;18.60;79.40;;;;;;4950053;28;20061;-54
2022/05/02 11:35:48;;;;;;;10.48;8.60;;;18.70;79.50;;;;;;4961818;28;20055;-54
2022/05/02 11:38:32;;;;;;;9.97;8.73;;;18.80;79.20;;;;;;4949114;28;20061;-49
2022/05/02 11:41:01;;;;;;;9.00;7.88;;;18.50;77.40;;;;;;4957512;28;20067;-58
2022/05/02 11:43:31;;;;;;;8.88;7.70;;;18.60;78.70;;;;;;4959313;28;20051;-54
2022/05/02 11:46:18;;;;;;;8.45;7.55;;;18.70;77.30;;;;;;4954807;28;20055;-53
2022/05/02 11:49:34;;;;;;;8.55;7.75;;;18.70;79.20;;;;;;4958118;28;20193;-49
2022/05/02 11:52:01;;;;;;;9.02;8.10;;;18.90;77.80;;;;;;4939344;29;20063;-53
2022/05/02 11:54:27;;;;;;;10.75;8.43;;;18.40;77.90;;;;;;4935942;29;20506;-54
2022/05/02 11:56:58;;;;;;;9.23;7.97;;;18.50;79.70;;;;;;4930752;29;20459;-55
2022/05/02 11:59:53;;;;;;;8.85;8.07;;;18.70;80.30;;;;;;4936070;29;20055;-52
2022/05/02 12:02:39;;;;;;;8.95;8.00;;;18.70;80.30;;;;;;4929428;29;20064;-55
2022/05/02 12:05:23;;;;;;;10.55;8.38;;;18.90;78.90;;;;;;4916337;29;20074;-54
2022/05/02 12:08:47;;;;;;;8.13;7.38;;;18.90;80.00;;;;;;4999394;28;20555;-56
2022/05/02 12:11:19;;;;;;;9.25;8.35;;;19.00;79.60;;;;;;4914715;29;20511;-50
2022/05/02 12:13:47;;;;;;;9.00;8.02;;;18.50;78.30;;;;;;4932930;29;20077;-53
2022/05/02 12:16:18;;;;;;;11.32;7.93;;;18.50;78.80;;;;;;4937091;28;20146;-55
2022/05/02 12:18:52;;;;;;;13.00;9.45;;;18.50;79.50;;;;;;4920447;29;20051;-50
2022/05/02 12:21:24;;;;;;;9.25;8.00;;;18.70;79.50;;;;;;4930135;29;20379;-53
2022/05/02 12:23:52;;;;;;;10.10;9.10;;;18.50;79.00;;;;;;4933512;29;20522;-53
2022/05/02 12:26:23;;;;;;;9.35;8.50;;;18.70;78.90;;;;;;4916417;29;20589;-51
2022/05/02 12:29:11;;;;;;;17.35;9.45;;;18.70;79.60;;;;;;4950068;28;20058;-54
2022/05/02 12:31:38;;;;;;;18.48;13.65;;;18.50;78.10;;;;;;4956673;28;20094;-51
2022/05/02 12:34:12;;;;;;;10.40;7.72;;;18.40;79.40;;;;;;4960164;28;20514;-53
2022/05/02 12:36:43;;;;;;;9.65;7.82;;;18.30;78.50;;;;;;4955137;28;20094;-46
2022/05/02 12:39:18;;;;;;;7.93;7.00;;;18.20;78.30;;;;;;4948460;28;20047;-57
2022/05/02 12:41:49;;;;;;;8.57;7.18;;;18.30;78.90;;;;;;4957032;28;20069;-54
2022/05/02 12:44:17;;;;;;;9.02;6.97;;;18.30;78.20;;;;;;4959486;28;20680;-55
2022/05/02 12:46:48;;;;;;;8.80;7.88;;;18.30;80.90;;;;;;4951691;28;20120;-53
2022/05/02 12:49:40;;;;;;;8.75;7.30;;;18.30;79.20;;;;;;5060369;28;20416;-56
2022/05/02 12:52:07;;;;;;;14.83;8.20;;;18.20;78.60;;;;;;5055946;28;20079;-56
2022/05/02 12:54:33;;;;;;;9.07;6.45;;;18.10;79.40;;;;;;5063856;28;20132;-54
2022/05/02 13:02:41;;;;;;;7.97;6.03;;;18.20;80.20;;;;;;5067308;28;20086;-55
2022/05/02 13:05:12;;;;;;;7.85;5.95;;;18.10;77.80;;;;;;5063005;28;20040;-50
2022/05/02 13:07:49;;;;;;;9.75;5.80;;;18.30;80.10;;;;;;5055836;28;20157;-55
2022/05/02 13:10:18;;;;;;;9.57;5.43;;;18.40;80.10;;;;;;5036373;28;20051;-56
2022/05/02 13:13:04;;;;;;;9.85;6.35;;;18.10;77.50;;;;;;5060636;28;20048;-55
2022/05/02 13:15:50;;;;;;;7.25;6.00;;;18.10;78.10;;;;;;5058451;28;20048;-53
2022/05/02 13:18:20;;;;;;;6.47;5.88;;;18.10;79.60;;;;;;5055846;28;20059;-55
2022/05/02 13:21:12;;;;;;;6.22;5.38;;;18.10;78.40;;;;;;5059877;28;20047;-50
2022/05/02 13:23:44;;;;;;;10.32;5.25;;;18.20;78.90;;;;;;5061818;28;20093;-57
2022/05/02 13:26:19;;;;;;;5.77;5.13;;;18.30;78.20;;;;;;5052186;28;20041;-50
2022/05/02 13:29:01;;;;;;;7.35;5.65;;;18.30;78.10;;;;;;5057928;28;20056;-52
2022/05/02 13:31:44;;;;;;;11.63;6.30;;;18.30;76.50;;;;;;5060894;28;20500;-55
2022/05/02 13:34:36;;;;;;;10.00;5.95;;;18.20;78.70;;;;;;5052456;28;20060;-52
2022/05/02 13:37:13;;;;;;;6.50;4.75;;;18.20;77.70;;;;;;5061607;28;20067;-54
2022/05/02 13:39:55;;;;;;;5.75;5.00;;;18.00;78.40;;;;;;5049391;28;20049;-50
2022/05/02 13:42:55;;;;;;;7.03;5.38;;;17.90;76.80;;;;;;5061611;28;20048;-55
2022/05/02 13:45:38;;;;;;;11.73;6.22;;;18.00;79.30;;;;;;5042808;28;20523;-53
2022/05/02 13:48:37;;;;;;;7.22;4.90;;;18.20;78.10;;;;;;5059574;28;20052;-52
2022/05/02 13:51:18;;;;;;;5.65;5.13;;;18.10;78.40;;;;;;5049336;28;20123;-45
2022/05/02 13:54:03;;;;;;;10.30;6.80;;;18.20;78.80;;;;;;5052730;28;20052;-51
2022/05/02 13:56:47;;;;;;;4.97;4.43;;;18.30;78.20;;;;;;5055016;28;20052;-53
2022/05/02 13:59:39;;;;;;;9.52;4.95;;;18.20;75.70;;;;;;5041056;28;20055;-55